Time;durP1;ratioP1;P1;durP2;ratioP2;P2;SDS_P1;SDS_P2;PMS_P1;PMS_P2;Temp;Humidity;BMP_temperature;BMP_pressure;BME280_temperature;BME280_humidity;BME280_pressure;Samples;Min_cycle;Max_cycle;Signal;HPM_P1;HPM_P2
2023/02/01 00:01:32;;;;;;;8.65;2.00;;;;;;;;;;5010883;28;20483;-63
2023/02/01 00:03:58;;;;;;;9.43;2.42;;;;;;;;;;5001842;28;20087;-63
2023/02/01 00:06:23;;;;;;;8.02;1.98;;;;;;;;;;5010077;28;20117;-64
2023/02/01 00:08:48;;;;;;;6.47;1.70;;;;;;;;;;5009425;28;20395;-65
2023/02/01 00:11:13;;;;;;;8.98;2.08;;;;;;;;;;5007590;28;20081;-64
2023/02/01 00:13:40;;;;;;;8.02;1.63;;;;;;;;;;5007693;28;20249;-65
2023/02/01 00:16:12;;;;;;;7.95;2.10;;;;;;;;;;5009100;28;20032;-64
2023/02/01 00:18:37;;;;;;;9.45;2.00;;;;;;;;;;5009685;28;20101;-64
2023/02/01 00:21:03;;;;;;;7.75;2.03;;;;;;;;;;5009821;28;20113;-64
2023/02/01 00:23:28;;;;;;;8.93;2.00;;;;;;;;;;5008342;28;20018;-64
2023/02/01 00:25:53;;;;;;;6.95;2.53;;;;;;;;;;5011361;28;20109;-63
2023/02/01 00:28:18;;;;;;;7.72;1.80;;;;;;;;;;5010367;28;20054;-63
2023/02/01 00:30:43;;;;;;;6.77;1.67;;;;;;;;;;5008487;28;20150;-62
2023/02/01 00:33:09;;;;;;;7.87;1.87;;;;;;;;;;5008521;28;20029;-62
2023/02/01 00:35:34;;;;;;;8.63;2.05;;;;;;;;;;5010410;28;20018;-63
2023/02/01 00:38:00;;;;;;;5.93;1.50;;;;;;;;;;5010637;28;20117;-64
2023/02/01 00:40:25;;;;;;;7.65;2.75;;;;;;;;;;5009747;28;20399;-63
2023/02/01 00:42:50;;;;;;;7.63;2.00;;;;;;;;;;5009833;28;20028;-63
2023/02/01 00:45:15;;;;;;;8.07;2.23;;;;;;;;;;5009505;28;20069;-65
2023/02/01 00:47:40;;;;;;;7.43;1.80;;;;;;;;;;5010170;28;20024;-64
2023/02/01 00:50:06;;;;;;;8.37;2.20;;;;;;;;;;5009846;28;20498;-63
2023/02/01 00:52:31;;;;;;;9.37;1.90;;;;;;;;;;5009678;28;20023;-62
2023/02/01 00:54:56;;;;;;;8.40;2.05;;;;;;;;;;5010189;28;20464;-65
2023/02/01 00:57:21;;;;;;;8.82;2.00;;;;;;;;;;5010803;28;20022;-65
2023/02/01 00:59:46;;;;;;;5.67;1.87;;;;;;;;;;5012685;28;20439;-64
2023/02/01 01:02:14;;;;;;;9.47;2.50;;;;;;;;;;5012310;28;20026;-62
2023/02/01 01:04:39;;;;;;;8.38;2.83;;;;;;;;;;5008777;28;20029;-64
2023/02/01 01:07:04;;;;;;;6.60;1.63;;;;;;;;;;5009898;28;20044;-64
2023/02/01 01:09:29;;;;;;;9.18;1.90;;;;;;;;;;5009757;28;20026;-63
2023/02/01 01:11:54;;;;;;;6.53;1.67;;;;;;;;;;5009972;28;20557;-63
2023/02/01 01:14:19;;;;;;;7.90;2.20;;;;;;;;;;5007917;28;20052;-65
2023/02/01 01:16:44;;;;;;;7.47;1.60;;;;;;;;;;5005623;28;20030;-64
2023/02/01 01:19:10;;;;;;;7.93;1.63;;;;;;;;;;5009824;28;20030;-64
2023/02/01 01:21:35;;;;;;;8.40;2.03;;;;;;;;;;5010246;28;20091;-64
2023/02/01 01:24:00;;;;;;;8.65;2.03;;;;;;;;;;5010830;28;20025;-65
2023/02/01 01:26:26;;;;;;;7.53;1.80;;;;;;;;;;5012822;28;20032;-64
2023/02/01 01:28:53;;;;;;;6.20;1.60;;;;;;;;;;5012531;28;20029;-64
2023/02/01 01:31:19;;;;;;;8.25;1.83;;;;;;;;;;5012403;28;20037;-66
2023/02/01 01:33:47;;;;;;;10.25;1.80;;;;;;;;;;5012187;28;20014;-64
2023/02/01 01:36:12;;;;;;;7.45;1.67;;;;;;;;;;5010916;28;20029;-65
2023/02/01 01:38:40;;;;;;;6.00;1.65;;;;;;;;;;5013338;28;20025;-65
2023/02/01 01:41:06;;;;;;;11.85;1.67;;;;;;;;;;5012858;28;20037;-65
2023/02/01 01:43:51;;;;;;;6.40;1.48;;;;;;;;;;5012155;28;20386;-64
2023/02/01 01:46:20;;;;;;;9.82;1.50;;;;;;;;;;5012551;28;20044;-64
2023/02/01 01:48:46;;;;;;;8.52;1.80;;;;;;;;;;5013047;28;20018;-64
2023/02/01 01:51:12;;;;;;;7.20;1.50;;;;;;;;;;5012574;28;20026;-64
2023/02/01 01:53:42;;;;;;;9.35;1.60;;;;;;;;;;5011856;28;20026;-64
2023/02/01 01:56:08;;;;;;;7.15;1.50;;;;;;;;;;5013195;28;20080;-64
2023/02/01 01:58:33;;;;;;;7.13;1.60;;;;;;;;;;5011352;28;20018;-64
2023/02/01 02:00:59;;;;;;;7.32;1.65;;;;;;;;;;5011615;28;20034;-65
2023/02/01 02:03:33;;;;;;;8.95;1.45;;;;;;;;;;5009025;28;20057;-65
2023/02/01 02:06:00;;;;;;;8.98;1.70;;;;;;;;;;5012444;28;20057;-64
2023/02/01 02:08:26;;;;;;;6.68;1.60;;;;;;;;;;5009379;28;20538;-63
2023/02/01 02:11:00;;;;;;;6.78;1.27;;;;;;;;;;5012382;28;20030;-63
2023/02/01 02:13:37;;;;;;;8.90;2.30;;;;;;;;;;5010258;28;20022;-63
2023/02/01 02:16:08;;;;;;;6.82;1.50;;;;;;;;;;5012076;28;20036;-65
2023/02/01 02:18:40;;;;;;;8.05;1.50;;;;;;;;;;4997492;28;20368;-63
2023/02/01 02:21:11;;;;;;;8.13;1.25;;;;;;;;;;5010818;28;20038;-62
2023/02/01 02:23:36;;;;;;;6.40;1.35;;;;;;;;;;5009668;28;20045;-64
2023/02/01 02:26:21;;;;;;;9.27;1.60;;;;;;;;;;5011547;28;20056;-64
2023/02/01 02:28:55;;;;;;;7.80;1.52;;;;;;;;;;4999214;28;20025;-64
2023/02/01 02:31:41;;;;;;;8.68;1.65;;;;;;;;;;5011308;28;20014;-64
2023/02/01 02:34:14;;;;;;;8.18;1.23;;;;;;;;;;5011054;28;20458;-63
2023/02/01 02:36:58;;;;;;;12.32;2.40;;;;;;;;;;5009689;28;20368;-64
2023/02/01 02:39:46;;;;;;;5.18;1.10;;;;;;;;;;5011572;28;20026;-66
2023/02/01 02:48:02;;;;;;;12.82;1.73;;;;;;;;;;5007422;28;20092;-63
2023/02/01 03:04:20;;;;;;;6.70;1.35;;;;;;;;;;5010156;28;20041;-64
2023/02/01 03:06:46;;;;;;;7.18;1.42;;;;;;;;;;5011397;28;20017;-63
2023/02/01 03:09:30;;;;;;;6.63;1.45;;;;;;;;;;5011495;28;20310;-65
2023/02/01 03:14:44;;;;;;;8.88;1.30;;;;;;;;;;5009578;28;20059;-64
2023/02/01 03:17:14;;;;;;;6.78;2.08;;;;;;;;;;5011675;28;20038;-63
2023/02/01 03:19:43;;;;;;;6.70;1.40;;;;;;;;;;5010810;28;20021;-64
2023/02/01 03:22:11;;;;;;;10.80;1.90;;;;;;;;;;5010839;28;20068;-63
2023/02/01 03:24:41;;;;;;;6.25;1.50;;;;;;;;;;5009689;28;20018;-64
2023/02/01 03:27:11;;;;;;;7.53;1.40;;;;;;;;;;5010040;28;20033;-63
2023/02/01 03:29:38;;;;;;;7.85;1.52;;;;;;;;;;5011397;28;20365;-63
2023/02/01 03:32:03;;;;;;;10.90;1.55;;;;;;;;;;5012988;28;20153;-63
2023/02/01 03:34:29;;;;;;;10.27;1.52;;;;;;;;;;5011579;28;20451;-64
2023/02/01 03:36:58;;;;;;;6.93;1.47;;;;;;;;;;5011247;28;20490;-63
2023/02/01 03:39:32;;;;;;;8.50;1.65;;;;;;;;;;5009968;28;20029;-63
2023/02/01 03:41:59;;;;;;;8.20;1.60;;;;;;;;;;5008948;28;20107;-63
2023/02/01 03:44:29;;;;;;;8.50;2.40;;;;;;;;;;5009145;28;20479;-63
2023/02/01 03:47:13;;;;;;;9.15;1.60;;;;;;;;;;5010871;28;20030;-63
2023/02/01 03:49:52;;;;;;;8.75;1.50;;;;;;;;;;5009866;28;20118;-63
2023/02/01 03:52:28;;;;;;;7.38;1.40;;;;;;;;;;5009287;28;20029;-62
2023/02/01 03:54:53;;;;;;;9.48;1.52;;;;;;;;;;5009485;28;20391;-63
2023/02/01 03:57:21;;;;;;;10.30;2.30;;;;;;;;;;5016178;28;20105;-62
2023/02/01 03:59:47;;;;;;;9.85;1.70;;;;;;;;;;5010885;28;20030;-62
2023/02/01 04:02:12;;;;;;;6.40;1.88;;;;;;;;;;5009997;28;20029;-62
2023/02/01 04:04:37;;;;;;;9.35;1.80;;;;;;;;;;5010526;28;20101;-64
2023/02/01 04:07:02;;;;;;;8.48;2.00;;;;;;;;;;5011034;28;20076;-62
2023/02/01 04:09:27;;;;;;;4.97;1.33;;;;;;;;;;5010026;28;20036;-63
2023/02/01 04:11:53;;;;;;;7.43;1.90;;;;;;;;;;5005501;28;20492;-63
2023/02/01 04:14:18;;;;;;;10.30;1.50;;;;;;;;;;5008731;28;20447;-62
2023/02/01 04:16:43;;;;;;;9.90;1.67;;;;;;;;;;5009358;28;20030;-62
2023/02/01 04:19:08;;;;;;;10.63;1.95;;;;;;;;;;5008642;28;20052;-63
2023/02/01 04:21:33;;;;;;;11.87;1.83;;;;;;;;;;5004638;28;20038;-63
2023/02/01 04:23:58;;;;;;;9.00;1.38;;;;;;;;;;5006883;28;20022;-62
2023/02/01 04:26:24;;;;;;;10.02;1.45;;;;;;;;;;5008915;28;20018;-62
2023/02/01 04:28:49;;;;;;;7.50;1.83;;;;;;;;;;5010375;28;20025;-62
2023/02/01 04:31:14;;;;;;;7.68;1.40;;;;;;;;;;5005896;28;20129;-63
2023/02/01 04:33:40;;;;;;;10.70;1.90;;;;;;;;;;5006592;28;20029;-63
2023/02/01 04:36:05;;;;;;;10.80;1.83;;;;;;;;;;5010015;28;20022;-62
2023/02/01 04:38:32;;;;;;;7.03;1.30;;;;;;;;;;5010960;28;20034;-63
2023/02/01 04:40:57;;;;;;;9.38;1.40;;;;;;;;;;5008686;28;20026;-62
2023/02/01 04:43:22;;;;;;;8.87;1.40;;;;;;;;;;5010336;28;20387;-62
2023/02/01 04:45:48;;;;;;;11.43;2.03;;;;;;;;;;5009870;28;20032;-62
2023/02/01 04:48:13;;;;;;;11.40;2.25;;;;;;;;;;5009990;28;20022;-63
2023/02/01 04:50:38;;;;;;;13.30;2.17;;;;;;;;;;5009293;28;20026;-62
2023/02/01 04:53:03;;;;;;;8.37;1.50;;;;;;;;;;5008121;28;20022;-63
2023/02/01 04:55:28;;;;;;;8.13;1.50;;;;;;;;;;5010584;28;20115;-63
2023/02/01 04:57:54;;;;;;;8.35;1.42;;;;;;;;;;5009928;28;20055;-62
2023/02/01 05:00:19;;;;;;;8.37;1.57;;;;;;;;;;5011540;28;20095;-62
2023/02/01 05:02:44;;;;;;;10.73;1.60;;;;;;;;;;5012811;28;20442;-63
2023/02/01 05:05:09;;;;;;;10.77;1.48;;;;;;;;;;5013969;28;20049;-64
2023/02/01 05:07:34;;;;;;;10.02;2.08;;;;;;;;;;5013385;28;20030;-64
2023/02/01 05:09:59;;;;;;;10.13;1.90;;;;;;;;;;5010107;28;20474;-63
2023/02/01 05:15:09;;;;;;;9.98;1.40;;;;;;;;;;5010245;28;20105;-64
2023/02/01 05:17:34;;;;;;;8.93;1.53;;;;;;;;;;5012966;28;20574;-62
2023/02/01 05:19:59;;;;;;;10.60;1.25;;;;;;;;;;5003986;28;20394;-63
2023/02/01 05:22:24;;;;;;;7.80;1.50;;;;;;;;;;5079663;22;20055;-62
2023/02/01 05:24:49;;;;;;;8.60;1.52;;;;;;;;;;5050773;28;20051;-62
2023/02/01 05:27:14;;;;;;;10.05;2.10;;;;;;;;;;5045810;28;20025;-62
2023/02/01 05:29:40;;;;;;;8.15;1.67;;;;;;;;;;5053088;28;20474;-62
2023/02/01 05:32:05;;;;;;;9.53;1.40;;;;;;;;;;5048415;28;20013;-62
2023/02/01 05:34:30;;;;;;;9.65;1.50;;;;;;;;;;5046486;28;20463;-62
2023/02/01 05:36:55;;;;;;;8.60;1.67;;;;;;;;;;5049295;28;20029;-61
2023/02/01 05:39:20;;;;;;;8.50;1.50;;;;;;;;;;5048982;28;20029;-61
2023/02/01 05:41:45;;;;;;;10.93;1.50;;;;;;;;;;5048339;28;20111;-61
2023/02/01 05:44:11;;;;;;;8.70;1.60;;;;;;;;;;5047099;28;20063;-61
2023/02/01 05:46:36;;;;;;;13.80;1.83;;;;;;;;;;5047550;28;20474;-61
2023/02/01 05:49:01;;;;;;;11.67;1.80;;;;;;;;;;5047900;28;20044;-61
2023/02/01 05:51:26;;;;;;;11.10;1.50;;;;;;;;;;5048119;28;20036;-61
2023/02/01 05:53:51;;;;;;;6.38;1.30;;;;;;;;;;5044907;28;20031;-61
2023/02/01 05:56:17;;;;;;;7.38;1.88;;;;;;;;;;5049496;28;20506;-59
2023/02/01 05:58:42;;;;;;;11.55;1.52;;;;;;;;;;5049340;28;20012;-61
2023/02/01 06:01:07;;;;;;;10.73;1.90;;;;;;;;;;5046954;28;20063;-61
2023/02/01 06:03:32;;;;;;;7.77;1.80;;;;;;;;;;5046236;28;20009;-60
2023/02/01 06:05:57;;;;;;;8.33;1.93;;;;;;;;;;5043326;28;20566;-61
2023/02/01 06:08:25;;;;;;;10.63;1.90;;;;;;;;;;5048062;28;20036;-61
2023/02/01 06:10:50;;;;;;;10.70;1.88;;;;;;;;;;5048398;28;20033;-61
2023/02/01 06:13:15;;;;;;;10.00;1.60;;;;;;;;;;5048417;28;20043;-61
2023/02/01 06:15:42;;;;;;;7.70;1.60;;;;;;;;;;5050067;28;20462;-60
2023/02/01 06:18:07;;;;;;;10.45;1.92;;;;;;;;;;5048877;28;20087;-60
2023/02/01 06:20:32;;;;;;;9.50;1.60;;;;;;;;;;5046850;28;20395;-60
2023/02/01 06:22:58;;;;;;;7.57;1.40;;;;;;;;;;5044103;28;20418;-59
2023/02/01 06:25:23;;;;;;;8.93;1.63;;;;;;;;;;5032983;28;20053;-60
2023/02/01 06:27:48;;;;;;;8.18;2.03;;;;;;;;;;5049539;28;20059;-60
2023/02/01 06:30:13;;;;;;;9.20;1.90;;;;;;;;;;5052892;28;20021;-60
2023/02/01 06:32:40;;;;;;;8.80;1.77;;;;;;;;;;5052378;28;20147;-61
2023/02/01 06:35:05;;;;;;;10.85;1.63;;;;;;;;;;5051833;28;20029;-61
2023/02/01 06:37:30;;;;;;;8.10;1.80;;;;;;;;;;5050635;28;20082;-60
2023/02/01 06:39:56;;;;;;;10.45;1.75;;;;;;;;;;5051256;28;20017;-60
2023/02/01 06:42:21;;;;;;;11.40;1.60;;;;;;;;;;5052270;28;20025;-61
2023/02/01 06:44:46;;;;;;;8.83;1.83;;;;;;;;;;5052081;28;20024;-64
2023/02/01 06:47:11;;;;;;;7.93;1.30;;;;;;;;;;5050182;28;20086;-60
2023/02/01 06:49:36;;;;;;;11.20;2.25;;;;;;;;;;5049030;28;20111;-60
2023/02/01 06:52:01;;;;;;;7.67;1.37;;;;;;;;;;5051358;28;20025;-61
2023/02/01 06:54:27;;;;;;;8.20;1.60;;;;;;;;;;5051824;28;20382;-60
2023/02/01 06:56:52;;;;;;;6.85;1.40;;;;;;;;;;5051083;28;20028;-59
2023/02/01 06:59:17;;;;;;;7.05;1.33;;;;;;;;;;5048949;28;20021;-59
2023/02/01 07:01:42;;;;;;;7.13;1.48;;;;;;;;;;5050442;28;20044;-61
2023/02/01 07:04:09;;;;;;;9.30;1.70;;;;;;;;;;5050994;28;20468;-59
2023/02/01 07:06:34;;;;;;;;;;;;;;;;;;5051221;28;20033;-61
2023/02/01 07:09:00;;;;;;;12.37;1.80;;;;;;;;;;5051366;28;19916;-59
2023/02/01 07:11:27;;;;;;;7.68;1.45;;;;;;;;;;5032059;28;20063;-62
2023/02/01 07:13:52;;;;;;;10.63;2.00;;;;;;;;;;5051250;28;20021;-60
2023/02/01 07:16:18;;;;;;;9.00;1.60;;;;;;;;;;5049997;28;20029;-61
2023/02/01 07:18:44;;;;;;;9.32;1.98;;;;;;;;;;5050029;28;20039;-60
2023/02/01 07:21:09;;;;;;;10.27;1.77;;;;;;;;;;5049416;28;20044;-60
2023/02/01 07:23:34;;;;;;;15.18;2.13;;;;;;;;;;5049747;28;20024;-60
2023/02/01 07:26:01;;;;;;;9.75;2.22;;;;;;;;;;5049092;28;20116;-59
2023/02/01 07:28:26;;;;;;;;;;;;;;;;;;5047532;28;20162;-61
2023/02/01 07:30:51;;;;;;;11.32;2.00;;;;;;;;;;5051144;28;19905;-60
2023/02/01 07:33:21;;;;;;;9.38;1.90;;;;;;;;;;5051877;28;20024;-59
2023/02/01 07:35:46;;;;;;;10.80;2.08;;;;;;;;;;5051095;28;20021;-59
2023/02/01 07:38:11;;;;;;;8.23;1.70;;;;;;;;;;5049873;28;20529;-61
2023/02/01 07:40:36;;;;;;;12.10;2.22;;;;;;;;;;5037654;28;20120;-61
2023/02/01 07:43:01;;;;;;;9.00;2.23;;;;;;;;;;5045275;28;20021;-61
2023/02/01 07:45:27;;;;;;;8.50;1.80;;;;;;;;;;5050511;28;20025;-60
2023/02/01 07:47:53;;;;;;;8.60;1.80;;;;;;;;;;5049833;28;20135;-61
2023/02/01 07:50:18;;;;;;;8.00;1.83;;;;;;;;;;5043758;28;20029;-61
2023/02/01 07:52:43;;;;;;;10.00;1.95;;;;;;;;;;5046932;28;20039;-61
2023/02/01 07:55:09;;;;;;;12.07;2.20;;;;;;;;;;5043897;28;20027;-61
2023/02/01 07:57:34;;;;;;;15.00;2.45;;;;;;;;;;5047770;28;20524;-61
2023/02/01 08:02:43;;;;;;;9.55;1.90;;;;;;;;;;5048435;28;20532;-61
2023/02/01 08:05:08;;;;;;;7.95;1.95;;;;;;;;;;5049922;28;20025;-61
2023/02/01 08:07:33;;;;;;;10.23;2.40;;;;;;;;;;5049429;28;20169;-61
2023/02/01 08:09:59;;;;;;;9.07;2.08;;;;;;;;;;5048885;28;20035;-61
2023/02/01 08:12:24;;;;;;;6.90;1.80;;;;;;;;;;5050190;28;20627;-61
2023/02/01 08:14:50;;;;;;;11.57;2.20;;;;;;;;;;5049231;28;20048;-61
2023/02/01 08:17:15;;;;;;;11.38;1.80;;;;;;;;;;5051985;28;20394;-61
2023/02/01 08:19:40;;;;;;;10.82;2.45;;;;;;;;;;5050169;28;20017;-62
2023/02/01 08:22:06;;;;;;;10.43;2.55;;;;;;;;;;5047884;28;20080;-61
2023/02/01 08:24:32;;;;;;;12.80;2.15;;;;;;;;;;5050262;28;20062;-61
2023/02/01 08:26:57;;;;;;;8.60;2.30;;;;;;;;;;5049842;28;20037;-61
2023/02/01 08:29:22;;;;;;;11.27;2.25;;;;;;;;;;5049616;28;20079;-61
2023/02/01 08:31:48;;;;;;;14.07;2.40;;;;;;;;;;5048412;28;20021;-61
2023/02/01 08:34:13;;;;;;;11.30;2.10;;;;;;;;;;5049538;28;20017;-59
2023/02/01 08:36:38;;;;;;;9.52;1.73;;;;;;;;;;5049382;28;20573;-59
2023/02/01 08:39:05;;;;;;;9.33;2.20;;;;;;;;;;5049646;28;20462;-59
2023/02/01 08:41:30;;;;;;;6.78;1.70;;;;;;;;;;5048332;28;20060;-59
2023/02/01 08:43:56;;;;;;;11.20;1.80;;;;;;;;;;5050051;28;20070;-62
2023/02/01 08:46:22;;;;;;;9.60;1.88;;;;;;;;;;5049725;28;20025;-59
2023/02/01 08:48:48;;;;;;;9.63;1.80;;;;;;;;;;5050198;28;20082;-61
2023/02/01 08:51:14;;;;;;;11.50;2.00;;;;;;;;;;5048644;28;20080;-59
2023/02/01 08:53:41;;;;;;;8.30;1.50;;;;;;;;;;5048650;28;20104;-59
2023/02/01 08:56:06;;;;;;;9.48;2.53;;;;;;;;;;5049829;28;20112;-61
2023/02/01 08:58:31;;;;;;;10.63;1.70;;;;;;;;;;5049686;28;20123;-61
2023/02/01 09:00:57;;;;;;;9.52;1.83;;;;;;;;;;5047342;28;20037;-60
2023/02/01 09:03:22;;;;;;;7.10;1.98;;;;;;;;;;5043888;28;20108;-61
2023/02/01 09:05:47;;;;;;;10.10;2.20;;;;;;;;;;5050779;28;20025;-61
2023/02/01 09:08:14;;;;;;;10.40;1.90;;;;;;;;;;5048161;28;20052;-60
2023/02/01 09:10:41;;;;;;;7.47;1.58;;;;;;;;;;5048081;28;20021;-61
2023/02/01 09:13:07;;;;;;;7.20;1.52;;;;;;;;;;5049477;28;20043;-59
2023/02/01 09:15:32;;;;;;;7.43;1.63;;;;;;;;;;5050013;28;20036;-59
2023/02/01 09:17:57;;;;;;;8.02;1.83;;;;;;;;;;5049212;28;20017;-59
2023/02/01 09:20:23;;;;;;;11.40;1.67;;;;;;;;;;5048101;28;20513;-61
2023/02/01 09:22:49;;;;;;;7.88;1.80;;;;;;;;;;5048253;28;20436;-61
2023/02/01 09:25:14;;;;;;;8.75;1.70;;;;;;;;;;5049615;28;20025;-60
2023/02/01 09:27:39;;;;;;;10.07;2.42;;;;;;;;;;5049726;28;20013;-61
2023/02/01 09:30:05;;;;;;;8.73;1.70;;;;;;;;;;5048151;28;20036;-61
2023/02/01 09:32:30;;;;;;;6.05;1.90;;;;;;;;;;5050303;28;20067;-62
2023/02/01 09:34:55;;;;;;;9.02;1.60;;;;;;;;;;5050940;28;20128;-60
2023/02/01 09:37:20;;;;;;;10.23;1.67;;;;;;;;;;5049096;28;20021;-61
2023/02/01 09:39:45;;;;;;;8.48;1.83;;;;;;;;;;5048396;28;20029;-60
2023/02/01 09:42:13;;;;;;;9.35;1.63;;;;;;;;;;5050116;28;20450;-61
2023/02/01 09:44:53;;;;;;;10.38;2.10;;;;;;;;;;5050886;28;20021;-60
2023/02/01 09:47:21;;;;;;;5.90;1.50;;;;;;;;;;5053294;28;20025;-61
2023/02/01 09:49:52;;;;;;;9.15;1.70;;;;;;;;;;5052495;28;20095;-60
2023/02/01 09:52:19;;;;;;;8.15;1.42;;;;;;;;;;5053483;28;20028;-61
2023/02/01 09:54:53;;;;;;;9.40;1.98;;;;;;;;;;5052349;28;20063;-61
2023/02/01 09:57:31;;;;;;;5.82;1.70;;;;;;;;;;5052851;28;20478;-61
2023/02/01 10:00:00;;;;;;;7.43;1.50;;;;;;;;;;5050989;28;20033;-61
2023/02/01 10:02:26;;;;;;;7.28;1.52;;;;;;;;;;5050940;28;20051;-61
2023/02/01 10:04:54;;;;;;;6.43;1.40;;;;;;;;;;5052771;28;20024;-60
2023/02/01 10:07:36;;;;;;;7.97;1.60;;;;;;;;;;5051620;28;20492;-60
2023/02/01 10:10:16;;;;;;;8.68;1.90;;;;;;;;;;5050814;28;20025;-68
2023/02/01 10:13:00;;;;;;;7.10;1.52;;;;;;;;;;5046356;28;20025;-61
2023/02/01 10:15:43;;;;;;;7.60;1.60;;;;;;;;;;5052449;28;20025;-60
2023/02/01 10:18:12;;;;;;;8.50;1.92;;;;;;;;;;5052600;28;20100;-60
2023/02/01 10:20:54;;;;;;;6.63;1.25;;;;;;;;;;5050640;28;20029;-60
2023/02/01 10:23:19;;;;;;;4.35;1.50;;;;;;;;;;5052229;28;20095;-60
2023/02/01 10:25:54;;;;;;;7.70;1.88;;;;;;;;;;5052883;28;20024;-61
2023/02/01 10:28:21;;;;;;;6.63;1.40;;;;;;;;;;5052400;28;20021;-60
2023/02/01 10:30:47;;;;;;;5.97;1.67;;;;;;;;;;5050817;28;20033;-60
2023/02/01 10:33:15;;;;;;;8.55;1.38;;;;;;;;;;5052609;28;20029;-60
2023/02/01 10:35:41;;;;;;;7.65;1.50;;;;;;;;;;5051416;28;20405;-61
2023/02/01 10:38:12;;;;;;;8.30;1.90;;;;;;;;;;5053714;28;20021;-61
2023/02/01 10:40:37;;;;;;;5.68;1.50;;;;;;;;;;5052588;28;20021;-60
2023/02/01 10:43:02;;;;;;;8.10;1.77;;;;;;;;;;5051740;28;20065;-61
2023/02/01 10:45:29;;;;;;;4.78;1.45;;;;;;;;;;5052156;28;20075;-60
2023/02/01 10:47:55;;;;;;;6.47;1.90;;;;;;;;;;5032227;28;20025;-61
2023/02/01 10:50:40;;;;;;;5.43;1.80;;;;;;;;;;5042836;28;20025;-60
2023/02/01 10:53:16;;;;;;;6.43;1.70;;;;;;;;;;5051305;28;20025;-61
2023/02/01 10:55:44;;;;;;;7.30;2.00;;;;;;;;;;5051946;28;20021;-61
2023/02/01 10:58:37;;;;;;;7.28;1.88;;;;;;;;;;5050284;28;20453;-61
2023/02/01 11:01:10;;;;;;;9.57;2.10;;;;;;;;;;5047488;28;20053;-60
2023/02/01 11:03:42;;;;;;;9.27;1.77;;;;;;;;;;5039837;28;20092;-60
2023/02/01 11:06:30;;;;;;;10.02;1.77;;;;;;;;;;5051812;28;20020;-61
2023/02/01 11:09:16;;;;;;;8.98;2.03;;;;;;;;;;5046702;28;20116;-59
2023/02/01 11:11:47;;;;;;;8.25;1.90;;;;;;;;;;5044359;28;20508;-61
2023/02/01 11:14:17;;;;;;;7.00;1.60;;;;;;;;;;5050963;28;20074;-59
2023/02/01 11:16:46;;;;;;;7.95;1.80;;;;;;;;;;5052008;28;20171;-59
2023/02/01 11:19:14;;;;;;;7.75;1.65;;;;;;;;;;5057967;28;20354;-60
2023/02/01 11:21:41;;;;;;;16.00;2.13;;;;;;;;;;5049799;28;20061;-60
2023/02/01 11:24:09;;;;;;;6.40;1.90;;;;;;;;;;5048732;28;20063;-60
2023/02/01 11:26:39;;;;;;;8.93;1.58;;;;;;;;;;5050962;28;20411;-59
2023/02/01 11:29:09;;;;;;;9.50;1.98;;;;;;;;;;5050424;28;20103;-59
2023/02/01 11:31:35;;;;;;;9.18;1.88;;;;;;;;;;5050738;28;20017;-59
2023/02/01 11:34:05;;;;;;;8.40;2.00;;;;;;;;;;5050344;28;20032;-60
2023/02/01 11:36:33;;;;;;;9.25;1.90;;;;;;;;;;5043378;28;20017;-59
2023/02/01 11:39:18;;;;;;;9.20;1.50;;;;;;;;;;5050629;28;20451;-59
2023/02/01 11:41:55;;;;;;;7.18;1.95;;;;;;;;;;5050227;28;20506;-59
2023/02/01 11:44:22;;;;;;;9.38;1.88;;;;;;;;;;5050143;28;20025;-59
2023/02/01 11:46:47;;;;;;;10.10;1.70;;;;;;;;;;5050492;28;20107;-59
2023/02/01 11:49:19;;;;;;;9.60;1.80;;;;;;;;;;5050654;28;20174;-59
2023/02/01 11:51:50;;;;;;;8.15;1.70;;;;;;;;;;5049963;28;20063;-59
2023/02/01 11:54:33;;;;;;;5.97;1.42;;;;;;;;;;5048585;28;20108;-59
2023/02/01 11:57:04;;;;;;;11.05;1.77;;;;;;;;;;5050185;28;20508;-61
2023/02/01 11:59:31;;;;;;;6.95;1.60;;;;;;;;;;5050020;28;20028;-60
2023/02/01 12:02:02;;;;;;;6.75;1.55;;;;;;;;;;5048946;28;20074;-62
2023/02/01 12:04:44;;;;;;;10.32;1.83;;;;;;;;;;5047604;28;20032;-59
2023/02/01 12:07:19;;;;;;;8.02;1.52;;;;;;;;;;5049941;28;20037;-59
2023/02/01 12:09:47;;;;;;;9.40;1.70;;;;;;;;;;5048762;28;20043;-59
2023/02/01 12:12:22;;;;;;;5.88;1.60;;;;;;;;;;5050049;28;20009;-59
2023/02/01 12:14:53;;;;;;;9.77;1.92;;;;;;;;;;5044863;28;20104;-59
2023/02/01 12:17:37;;;;;;;6.82;1.50;;;;;;;;;;5031242;28;20032;-60
2023/02/01 12:20:26;;;;;;;8.50;1.60;;;;;;;;;;5049421;28;20080;-61
2023/02/01 12:23:06;;;;;;;7.95;2.00;;;;;;;;;;5046360;28;20044;-61
2023/02/01 12:25:37;;;;;;;7.80;1.70;;;;;;;;;;5050131;28;20017;-61
2023/02/01 12:28:14;;;;;;;6.07;1.60;;;;;;;;;;5050084;28;20458;-61
2023/02/01 12:30:54;;;;;;;6.38;1.30;;;;;;;;;;5049323;28;20112;-61
2023/02/01 12:33:35;;;;;;;5.60;1.50;;;;;;;;;;5048220;28;20025;-61
2023/02/01 12:36:09;;;;;;;6.40;1.30;;;;;;;;;;5049941;28;20029;-61
2023/02/01 12:38:40;;;;;;;6.47;1.27;;;;;;;;;;5049216;28;20017;-61
2023/02/01 12:41:11;;;;;;;5.13;1.17;;;;;;;;;;5049384;28;20029;-61
2023/02/01 12:43:40;;;;;;;7.35;1.70;;;;;;;;;;5051914;28;20051;-61
2023/02/01 12:46:16;;;;;;;5.82;1.48;;;;;;;;;;5050087;28;20057;-61
2023/02/01 12:48:48;;;;;;;9.02;2.05;;;;;;;;;;5050429;28;20493;-62
2023/02/01 12:51:16;;;;;;;10.25;1.50;;;;;;;;;;5048583;28;20120;-60
2023/02/01 12:53:47;;;;;;;9.57;1.60;;;;;;;;;;5048665;28;20052;-61
2023/02/01 12:56:15;;;;;;;6.22;1.30;;;;;;;;;;5047711;28;20029;-61
2023/02/01 12:58:55;;;;;;;9.57;1.52;;;;;;;;;;5050625;28;20040;-61
2023/02/01 13:01:24;;;;;;;8.10;1.35;;;;;;;;;;5049345;28;20093;-61
2023/02/01 13:03:49;;;;;;;6.38;1.40;;;;;;;;;;5049971;28;20024;-61
2023/02/01 13:06:28;;;;;;;8.27;1.60;;;;;;;;;;5048067;28;20146;-61
2023/02/01 13:08:53;;;;;;;;;;;;;;;;;;5049570;28;20487;-62
2023/02/01 13:11:22;;;;;;;9.13;1.50;;;;;;;;;;5049901;28;19978;-61
2023/02/01 13:14:14;;;;;;;8.07;1.55;;;;;;;;;;5050770;28;20099;-61
2023/02/01 13:16:44;;;;;;;6.63;1.42;;;;;;;;;;5050428;28;20021;-65
2023/02/01 13:19:22;;;;;;;6.30;1.38;;;;;;;;;;5047498;28;20075;-61
2023/02/01 13:21:56;;;;;;;7.25;1.45;;;;;;;;;;5053086;28;20429;-61
2023/02/01 13:24:39;;;;;;;6.07;1.40;;;;;;;;;;5052711;28;20359;-59
2023/02/01 13:27:05;;;;;;;6.97;1.40;;;;;;;;;;5053285;28;20021;-61
2023/02/01 13:29:31;;;;;;;8.35;1.85;;;;;;;;;;5051517;28;20025;-61
2023/02/01 13:32:02;;;;;;;7.22;1.40;;;;;;;;;;5053259;28;20025;-62
2023/02/01 13:34:49;;;;;;;8.77;1.73;;;;;;;;;;5052268;28;20029;-61
2023/02/01 13:37:29;;;;;;;7.85;1.60;;;;;;;;;;5052102;28;20040;-62
2023/02/01 13:40:13;;;;;;;7.95;1.63;;;;;;;;;;5051640;28;20009;-61
2023/02/01 13:42:48;;;;;;;6.70;1.40;;;;;;;;;;5064016;28;20043;-60
2023/02/01 13:45:24;;;;;;;11.55;1.85;;;;;;;;;;5072960;28;20021;-60
2023/02/01 13:47:52;;;;;;;7.00;1.45;;;;;;;;;;5056201;28;20028;-62
2023/02/01 13:50:20;;;;;;;8.73;1.48;;;;;;;;;;5053341;28;20029;-61
2023/02/01 13:52:51;;;;;;;7.30;1.60;;;;;;;;;;5053325;28;20021;-61
2023/02/01 13:55:19;;;;;;;8.48;1.92;;;;;;;;;;5053182;28;20023;-61
2023/02/01 13:57:45;;;;;;;9.52;1.60;;;;;;;;;;5052490;28;20025;-59
2023/02/01 14:00:23;;;;;;;9.70;1.65;;;;;;;;;;5052000;28;20105;-60
2023/02/01 14:03:00;;;;;;;6.72;1.50;;;;;;;;;;5051875;28;20427;-60
2023/02/01 14:05:34;;;;;;;5.72;1.20;;;;;;;;;;5053436;28;20021;-60
2023/02/01 14:08:10;;;;;;;7.75;1.20;;;;;;;;;;5050009;28;20021;-60
2023/02/01 14:10:44;;;;;;;7.20;1.55;;;;;;;;;;5051045;28;20450;-60
2023/02/01 14:13:13;;;;;;;9.85;1.45;;;;;;;;;;5052162;28;20025;-60
2023/02/01 14:15:38;;;;;;;7.47;1.60;;;;;;;;;;5052062;28;20029;-60
2023/02/01 14:18:23;;;;;;;6.07;1.37;;;;;;;;;;5051627;28;20649;-60
2023/02/01 14:20:50;;;;;;;8.80;1.58;;;;;;;;;;5049943;28;20067;-59
2023/02/01 14:23:17;;;;;;;4.80;1.30;;;;;;;;;;5051892;28;20032;-62
2023/02/01 14:25:43;;;;;;;8.05;1.40;;;;;;;;;;5051381;28;20425;-60
2023/02/01 14:28:37;;;;;;;7.53;1.58;;;;;;;;;;5049448;28;20423;-61
2023/02/01 14:31:13;;;;;;;8.07;1.38;;;;;;;;;;4995373;28;20065;-60
2023/02/01 14:33:41;;;;;;;8.48;1.52;;;;;;;;;;5043599;28;20025;-60
2023/02/01 14:36:07;;;;;;;9.35;2.15;;;;;;;;;;5051762;28;20138;-59
2023/02/01 14:38:33;;;;;;;8.93;1.40;;;;;;;;;;5049776;28;20474;-60
2023/02/01 14:41:22;;;;;;;7.00;1.30;;;;;;;;;;5052124;28;20127;-60
2023/02/01 14:43:51;;;;;;;6.90;1.40;;;;;;;;;;5031978;28;20386;-60
2023/02/01 14:46:16;;;;;;;6.90;1.70;;;;;;;;;;5031194;28;20025;-60
2023/02/01 14:48:44;;;;;;;8.27;1.70;;;;;;;;;;5051368;28;20025;-61
2023/02/01 14:51:11;;;;;;;7.38;1.60;;;;;;;;;;5049835;28;20040;-60
2023/02/01 14:53:37;;;;;;;8.80;1.45;;;;;;;;;;5050862;28;20394;-61
2023/02/01 14:56:06;;;;;;;6.97;1.80;;;;;;;;;;5051533;28;20533;-61
2023/02/01 14:58:34;;;;;;;9.30;2.03;;;;;;;;;;5050997;28;20482;-59
2023/02/01 15:01:14;;;;;;;7.63;2.13;;;;;;;;;;5050750;28;20037;-60
2023/02/01 15:03:47;;;;;;;6.15;1.65;;;;;;;;;;5050965;28;20025;-60
2023/02/01 15:06:21;;;;;;;8.23;1.73;;;;;;;;;;5051387;28;20532;-60
2023/02/01 15:08:47;;;;;;;7.82;1.73;;;;;;;;;;5048508;28;20104;-60
2023/02/01 15:11:14;;;;;;;7.17;1.70;;;;;;;;;;5050813;28;20108;-61
2023/02/01 15:13:39;;;;;;;7.03;1.60;;;;;;;;;;5051809;28;20025;-61
2023/02/01 15:16:14;;;;;;;10.75;2.55;;;;;;;;;;5051625;28;20087;-61
2023/02/01 15:18:40;;;;;;;8.52;2.80;;;;;;;;;;5050437;28;20025;-61